Time;durP1;ratioP1;P1;durP2;ratioP2;P2;SDS_P1;SDS_P2;PMS_P1;PMS_P2;Temp;Humidity;BMP_temperature;BMP_pressure;BME280_temperature;BME280_humidity;BME280_pressure;Samples;Min_cycle;Max_cycle;Signal;HPM_P1;HPM_P2
2022/03/15 00:01:58;;;;;;;9.93;5.90;;;6.80;56.40;;;;;;5095545;28;20036;-73
2022/03/15 00:04:24;;;;;;;11.40;5.80;;;6.90;56.30;;;;;;5095405;28;20069;-74
2022/03/15 00:06:51;;;;;;;17.17;7.10;;;6.90;56.20;;;;;;5095303;28;20038;-75
2022/03/15 00:09:16;;;;;;;11.38;6.35;;;7.00;56.10;;;;;;5095417;28;20016;-73
2022/03/15 00:11:42;;;;;;;11.30;6.20;;;7.00;56.10;;;;;;5095354;28;20590;-74
2022/03/15 00:14:09;;;;;;;7.97;5.35;;;7.00;56.10;;;;;;5095189;28;20038;-75
2022/03/15 00:16:35;;;;;;;10.10;5.53;;;7.00;56.20;;;;;;5093904;28;20055;-75
2022/03/15 00:19:01;;;;;;;9.00;5.50;;;7.10;56.60;;;;;;5095274;28;20399;-74
2022/03/15 00:21:28;;;;;;;7.82;5.13;;;7.00;56.60;;;;;;5095610;28;20057;-74
2022/03/15 00:23:53;;;;;;;12.50;5.60;;;7.00;56.80;;;;;;5095632;28;20020;-71
2022/03/15 00:26:19;;;;;;;8.85;5.53;;;7.00;56.90;;;;;;5095083;28;20590;-75
2022/03/15 00:28:45;;;;;;;11.68;6.05;;;7.00;56.80;;;;;;5095012;28;20032;-75
2022/03/15 00:31:10;;;;;;;13.85;6.53;;;6.90;57.00;;;;;;5095337;28;20051;-74
2022/03/15 00:33:37;;;;;;;12.25;6.93;;;6.90;57.20;;;;;;5095202;28;20461;-74
2022/03/15 00:36:03;;;;;;;11.23;6.38;;;6.90;57.10;;;;;;5095082;28;20443;-74
2022/03/15 00:38:29;;;;;;;12.55;6.93;;;6.80;57.10;;;;;;5094863;28;20484;-72
2022/03/15 00:40:54;;;;;;;13.00;6.15;;;6.80;57.50;;;;;;5094639;28;20532;-73
2022/03/15 00:43:20;;;;;;;12.70;6.43;;;6.80;57.50;;;;;;5095240;28;20043;-74
2022/03/15 00:45:46;;;;;;;14.52;7.30;;;6.80;57.60;;;;;;5100116;28;20070;-72
2022/03/15 00:48:13;;;;;;;12.73;6.15;;;6.80;57.80;;;;;;5095657;28;20365;-74
2022/03/15 00:50:41;;;;;;;17.30;6.70;;;6.80;58.00;;;;;;5094565;28;20028;-74
2022/03/15 00:53:08;;;;;;;12.43;6.60;;;6.80;58.20;;;;;;5094592;28;20024;-72
2022/03/15 00:55:34;;;;;;;11.00;6.43;;;6.80;58.20;;;;;;5093296;28;20357;-74
2022/03/15 00:58:00;;;;;;;13.18;5.85;;;6.80;58.30;;;;;;5094374;28;20028;-73
2022/03/15 01:00:27;;;;;;;12.93;6.53;;;6.80;58.40;;;;;;5094276;28;20024;-74
2022/03/15 01:02:53;;;;;;;11.13;6.07;;;6.80;58.50;;;;;;5094205;28;20150;-71
2022/03/15 01:05:18;;;;;;;12.30;6.10;;;6.80;58.50;;;;;;5094001;28;20054;-72
2022/03/15 01:07:44;;;;;;;13.05;6.30;;;6.90;58.60;;;;;;5093144;28;20064;-75
2022/03/15 01:10:09;;;;;;;11.32;5.00;;;6.80;58.60;;;;;;5092937;28;20453;-72
2022/03/15 01:12:35;;;;;;;13.18;5.88;;;6.80;58.50;;;;;;5094056;28;20024;-75
2022/03/15 01:15:00;;;;;;;11.52;6.05;;;6.80;58.70;;;;;;5093916;28;20370;-73
2022/03/15 01:17:26;;;;;;;10.60;5.68;;;6.80;58.70;;;;;;5093785;28;20052;-73
2022/03/15 01:19:52;;;;;;;13.85;6.43;;;6.80;58.60;;;;;;5093884;28;20020;-72
2022/03/15 01:22:17;;;;;;;11.48;5.95;;;6.80;58.60;;;;;;5093672;28;20123;-73
2022/03/15 01:24:43;;;;;;;13.05;5.90;;;6.80;58.40;;;;;;5094008;28;20020;-72
2022/03/15 01:27:08;;;;;;;17.75;6.85;;;6.80;58.60;;;;;;5093618;28;20035;-72
2022/03/15 01:29:34;;;;;;;11.73;6.60;;;6.60;59.70;;;;;;5093552;28;20111;-72
2022/03/15 01:32:00;;;;;;;11.77;6.32;;;6.50;59.70;;;;;;5093429;28;20028;-72
2022/03/15 01:34:28;;;;;;;13.48;6.93;;;6.50;59.80;;;;;;5093609;28;20389;-72
2022/03/15 01:36:53;;;;;;;13.60;6.97;;;6.60;59.80;;;;;;5093867;28;20028;-72
2022/03/15 01:39:19;;;;;;;12.40;6.63;;;6.60;59.70;;;;;;5093509;28;20070;-72
2022/03/15 01:41:45;;;;;;;12.10;6.50;;;6.70;59.60;;;;;;5093427;28;20054;-72
2022/03/15 01:44:22;;;;;;;12.65;6.07;;;6.60;59.60;;;;;;5093188;28;20532;-73
2022/03/15 01:46:49;;;;;;;9.75;5.70;;;6.70;59.70;;;;;;5093243;28;20070;-72
2022/03/15 01:49:15;;;;;;;11.93;6.00;;;6.70;59.60;;;;;;5093295;28;20020;-72
2022/03/15 01:51:41;;;;;;;9.13;5.75;;;6.70;59.80;;;;;;5093536;28;20149;-72
2022/03/15 01:54:08;;;;;;;11.60;5.63;;;6.60;60.00;;;;;;5093349;28;20032;-73
2022/03/15 01:56:34;;;;;;;12.00;5.90;;;6.60;60.10;;;;;;5093211;28;20109;-72
2022/03/15 01:59:00;;;;;;;9.13;5.35;;;6.60;60.40;;;;;;5093178;28;20051;-72
2022/03/15 02:01:26;;;;;;;12.18;5.57;;;6.60;60.30;;;;;;5093070;28;20056;-72
2022/03/15 02:03:51;;;;;;;12.57;5.47;;;6.60;60.70;;;;;;5092961;28;20124;-72
2022/03/15 02:06:17;;;;;;;11.43;5.82;;;6.60;60.70;;;;;;5093012;28;20028;-72
2022/03/15 02:08:43;;;;;;;14.95;5.63;;;6.60;60.60;;;;;;5092993;28;20028;-72
2022/03/15 02:11:08;;;;;;;9.55;5.93;;;6.60;60.50;;;;;;5093066;28;20016;-72
2022/03/15 02:13:34;;;;;;;9.23;5.88;;;6.60;61.40;;;;;;5092968;28;20048;-73
2022/03/15 02:16:00;;;;;;;10.85;5.65;;;6.50;60.70;;;;;;5092878;28;20048;-72
2022/03/15 02:18:27;;;;;;;13.30;5.25;;;6.50;61.70;;;;;;5092268;28;20024;-72
2022/03/15 02:20:54;;;;;;;16.00;6.10;;;6.40;60.90;;;;;;5092890;28;20040;-72
2022/03/15 02:23:19;;;;;;;11.93;5.88;;;6.40;61.30;;;;;;5093181;28;20437;-72
2022/03/15 02:25:45;;;;;;;10.18;5.85;;;6.40;61.50;;;;;;5092793;28;20028;-72
2022/03/15 02:28:11;;;;;;;13.63;6.15;;;6.50;61.50;;;;;;5092891;28;20044;-72
2022/03/15 02:30:36;;;;;;;8.93;5.43;;;6.40;61.30;;;;;;5092700;28;20419;-71
2022/03/15 02:33:02;;;;;;;10.90;5.72;;;6.50;61.40;;;;;;5092597;28;20020;-72
2022/03/15 02:35:28;;;;;;;14.13;5.80;;;6.40;61.50;;;;;;5093011;28;20028;-71
2022/03/15 02:37:53;;;;;;;12.52;6.03;;;6.40;61.50;;;;;;5092843;28;20472;-72
2022/03/15 02:40:19;;;;;;;11.57;6.25;;;6.50;61.60;;;;;;5092643;28;20032;-71
2022/03/15 02:42:44;;;;;;;11.32;5.90;;;6.40;61.70;;;;;;5092595;28;20040;-72
2022/03/15 02:45:10;;;;;;;11.57;6.50;;;6.40;62.00;;;;;;5092810;28;20111;-71
2022/03/15 02:47:37;;;;;;;11.68;6.05;;;6.50;61.90;;;;;;5092640;28;20108;-71
2022/03/15 02:50:03;;;;;;;12.25;6.68;;;6.50;61.80;;;;;;5092607;28;20099;-71
2022/03/15 02:52:28;;;;;;;13.23;6.00;;;6.60;61.50;;;;;;5092609;28;20050;-71
2022/03/15 02:54:55;;;;;;;15.05;6.13;;;6.60;61.30;;;;;;5092548;28;20460;-72
2022/03/15 02:57:24;;;;;;;15.40;6.55;;;6.50;61.40;;;;;;5092489;28;20024;-71
2022/03/15 02:59:51;;;;;;;12.02;6.20;;;6.50;61.70;;;;;;5092496;28;20093;-72
2022/03/15 03:02:17;;;;;;;12.25;6.00;;;6.40;61.80;;;;;;5092760;28;20491;-72
2022/03/15 03:04:43;;;;;;;12.77;5.88;;;6.30;62.10;;;;;;5092323;28;20024;-73
2022/03/15 03:07:09;;;;;;;12.52;5.90;;;6.30;62.60;;;;;;5092713;28;20024;-72
2022/03/15 03:09:34;;;;;;;14.40;6.07;;;6.30;62.90;;;;;;5092424;28;20096;-73
2022/03/15 03:12:00;;;;;;;10.57;5.70;;;6.20;63.10;;;;;;5092473;28;20090;-72
2022/03/15 03:14:26;;;;;;;12.98;5.90;;;6.30;63.40;;;;;;5092352;28;20024;-73
2022/03/15 03:16:52;;;;;;;10.48;5.25;;;6.30;63.50;;;;;;5092489;28;20059;-72
2022/03/15 03:19:18;;;;;;;10.98;5.63;;;6.30;63.70;;;;;;5092397;28;20025;-72
2022/03/15 03:21:43;;;;;;;12.27;5.28;;;6.30;64.00;;;;;;5092103;28;20028;-72
2022/03/15 03:24:09;;;;;;;10.88;5.40;;;6.30;64.20;;;;;;5092672;28;20492;-74
2022/03/15 03:26:37;;;;;;;14.13;6.32;;;6.20;64.30;;;;;;5093316;28;20020;-71
2022/03/15 03:29:07;;;;;;;13.15;6.45;;;6.20;65.00;;;;;;5097317;28;20028;-74
2022/03/15 03:31:33;;;;;;;16.08;7.30;;;6.10;65.10;;;;;;5094684;28;20024;-75
2022/03/15 03:33:58;;;;;;;16.27;7.63;;;6.20;64.90;;;;;;5094783;28;20361;-72
2022/03/15 03:36:24;;;;;;;13.30;6.65;;;6.20;64.90;;;;;;5095926;28;20020;-75
2022/03/15 03:38:51;;;;;;;11.98;5.40;;;6.20;65.10;;;;;;5095889;28;20388;-72
2022/03/15 03:41:16;;;;;;;12.88;4.95;;;6.20;65.40;;;;;;5095774;28;20032;-75
2022/03/15 03:43:42;;;;;;;11.05;4.95;;;6.20;65.60;;;;;;5095690;28;20480;-73
2022/03/15 03:46:07;;;;;;;10.52;5.15;;;6.20;65.80;;;;;;5095655;28;20109;-74
2022/03/15 03:48:33;;;;;;;14.02;5.43;;;6.20;66.30;;;;;;5094355;28;20362;-75
2022/03/15 03:50:58;;;;;;;10.32;4.60;;;6.20;66.50;;;;;;5095592;28;20016;-73
2022/03/15 03:53:24;;;;;;;13.40;5.03;;;6.20;66.50;;;;;;5094293;28;20066;-71
2022/03/15 03:55:50;;;;;;;14.75;5.40;;;6.30;66.60;;;;;;5095639;28;20380;-74
2022/03/15 03:58:16;;;;;;;11.82;4.93;;;6.30;66.60;;;;;;5095467;28;20028;-75
2022/03/15 04:00:41;;;;;;;10.02;5.50;;;6.40;66.50;;;;;;5095398;28;20016;-72
2022/03/15 04:03:07;;;;;;;8.13;4.60;;;6.40;66.50;;;;;;5095369;28;20039;-74
2022/03/15 04:05:39;;;;;;;15.10;5.65;;;6.40;66.20;;;;;;5095433;28;20477;-74
2022/03/15 04:08:05;;;;;;;15.73;6.82;;;6.40;66.30;;;;;;5095683;28;20041;-73
2022/03/15 04:10:32;;;;;;;17.20;7.13;;;6.50;66.30;;;;;;5095104;28;20021;-75
2022/03/15 04:12:58;;;;;;;16.13;5.60;;;6.50;66.10;;;;;;5095100;28;20038;-72
2022/03/15 04:15:24;;;;;;;10.23;4.20;;;6.50;66.00;;;;;;5095263;28;20024;-73
2022/03/15 04:17:50;;;;;;;12.57;4.25;;;6.50;66.20;;;;;;5095181;28;20137;-74
2022/03/15 04:20:16;;;;;;;8.52;3.40;;;6.40;66.50;;;;;;5095188;28;20051;-72
2022/03/15 04:22:42;;;;;;;8.93;3.30;;;6.50;66.70;;;;;;5094818;28;20109;-72
2022/03/15 04:25:09;;;;;;;8.57;3.40;;;6.50;66.50;;;;;;5095053;28;20451;-71
2022/03/15 04:27:35;;;;;;;9.95;3.28;;;6.60;66.40;;;;;;5095212;28;20032;-72
2022/03/15 04:30:00;;;;;;;9.25;3.72;;;6.60;66.10;;;;;;5094903;28;20104;-72
2022/03/15 04:32:26;;;;;;;7.45;3.20;;;6.60;65.80;;;;;;5094782;28;20023;-73
2022/03/15 04:34:52;;;;;;;7.85;3.42;;;6.60;65.60;;;;;;5094830;28;20039;-75
2022/03/15 04:37:19;;;;;;;8.50;3.50;;;6.60;65.60;;;;;;5094735;28;20473;-75
2022/03/15 04:39:45;;;;;;;8.30;3.13;;;6.60;65.60;;;;;;5094655;28;20031;-75
2022/03/15 04:42:11;;;;;;;5.72;3.00;;;6.50;65.80;;;;;;5094441;28;20036;-73
2022/03/15 04:44:36;;;;;;;7.57;3.40;;;6.60;65.70;;;;;;5094715;28;20034;-72
2022/03/15 04:47:02;;;;;;;9.00;3.85;;;6.60;65.80;;;;;;5094498;28;20098;-72
2022/03/15 04:49:28;;;;;;;12.35;3.75;;;6.60;66.10;;;;;;5094437;28;20024;-74
2022/03/15 04:51:53;;;;;;;9.80;4.45;;;6.60;66.20;;;;;;5094446;28;20050;-74
2022/03/15 04:54:19;;;;;;;13.02;5.10;;;6.60;66.50;;;;;;5092849;28;20020;-72
2022/03/15 04:56:45;;;;;;;13.15;4.70;;;6.50;66.70;;;;;;5094225;28;20502;-74
2022/03/15 04:59:10;;;;;;;10.60;3.65;;;6.50;67.00;;;;;;5094211;28;20379;-75
2022/03/15 05:01:36;;;;;;;10.93;4.07;;;6.40;66.90;;;;;;5094008;28;20045;-72
2022/03/15 05:04:01;;;;;;;8.68;3.33;;;6.50;66.70;;;;;;5094135;28;20072;-72
2022/03/15 05:06:27;;;;;;;12.18;3.22;;;6.50;66.50;;;;;;5092572;28;20229;-72
2022/03/15 05:08:52;;;;;;;7.57;3.47;;;6.60;66.30;;;;;;5093977;28;20068;-74
2022/03/15 05:11:19;;;;;;;9.15;3.97;;;6.60;66.40;;;;;;5093832;28;20027;-75
2022/03/15 05:13:47;;;;;;;9.48;3.42;;;6.60;66.50;;;;;;5094058;28;20020;-72
2022/03/15 05:16:17;;;;;;;9.00;4.15;;;6.40;66.70;;;;;;5093556;28;20459;-75
2022/03/15 05:18:44;;;;;;;7.78;3.53;;;6.30;67.20;;;;;;5093646;28;20113;-72
2022/03/15 05:21:14;;;;;;;9.38;3.70;;;6.40;67.50;;;;;;5093790;28;20068;-72
2022/03/15 05:23:39;;;;;;;13.60;3.58;;;6.40;67.50;;;;;;5093407;28;20031;-72
2022/03/15 05:26:05;;;;;;;10.65;3.92;;;6.40;67.30;;;;;;5093433;28;20460;-72
2022/03/15 05:28:31;;;;;;;7.00;3.20;;;6.50;67.20;;;;;;5093356;28;20031;-73
2022/03/15 05:30:56;;;;;;;9.95;3.60;;;6.40;66.90;;;;;;5093679;28;20091;-74
2022/03/15 05:33:22;;;;;;;13.38;4.10;;;6.50;66.90;;;;;;5093651;28;20024;-74
2022/03/15 05:35:47;;;;;;;11.48;3.13;;;6.60;66.60;;;;;;5092402;28;20035;-75
2022/03/15 05:38:13;;;;;;;7.65;3.35;;;6.60;66.10;;;;;;5093642;28;20031;-72
2022/03/15 05:40:38;;;;;;;7.95;3.63;;;6.70;65.80;;;;;;5093341;28;20095;-73
2022/03/15 05:43:04;;;;;;;6.00;3.50;;;6.70;65.50;;;;;;5093447;28;20519;-75
2022/03/15 05:45:30;;;;;;;9.10;3.63;;;6.90;65.40;;;;;;5093484;28;20028;-75
2022/03/15 05:47:56;;;;;;;7.90;3.90;;;6.90;64.90;;;;;;5093378;28;20034;-73
2022/03/15 05:50:22;;;;;;;7.22;3.47;;;7.00;64.70;;;;;;5093175;28;20020;-72
2022/03/15 05:52:48;;;;;;;9.70;3.97;;;6.90;64.40;;;;;;5093022;28;20071;-72
2022/03/15 05:55:14;;;;;;;8.23;4.43;;;7.00;64.50;;;;;;5093091;28;20036;-72
2022/03/15 05:57:40;;;;;;;11.98;4.65;;;7.00;64.40;;;;;;5093067;28;20384;-74
2022/03/15 06:00:07;;;;;;;22.70;11.05;;;7.10;64.60;;;;;;5093421;28;20455;-76
2022/03/15 06:02:32;;;;;;;17.58;7.15;;;7.10;65.00;;;;;;5093119;28;20047;-75
2022/03/15 06:04:59;;;;;;;11.35;5.00;;;7.10;64.80;;;;;;5093026;28;20016;-71
2022/03/15 06:07:26;;;;;;;16.92;6.82;;;7.10;64.50;;;;;;5092904;28;20035;-72
2022/03/15 06:09:52;;;;;;;17.20;7.32;;;7.00;64.80;;;;;;5093035;28;20016;-73
2022/03/15 06:12:19;;;;;;;11.77;5.20;;;6.80;66.70;;;;;;5094081;28;20459;-72
2022/03/15 06:14:46;;;;;;;15.65;5.68;;;6.70;67.30;;;;;;5093507;28;20031;-72
2022/03/15 06:17:11;;;;;;;12.30;4.70;;;6.70;67.20;;;;;;5092552;28;20387;-72
2022/03/15 06:19:37;;;;;;;12.88;5.28;;;6.80;66.80;;;;;;5092636;28;20087;-75
2022/03/15 06:22:03;;;;;;;11.25;4.63;;;6.90;66.90;;;;;;5092416;28;20494;-75
2022/03/15 06:24:29;;;;;;;8.77;4.10;;;7.00;67.00;;;;;;5092500;28;20016;-74
2022/03/15 06:26:55;;;;;;;14.80;4.82;;;7.00;66.10;;;;;;5092381;28;20024;-75
2022/03/15 06:29:20;;;;;;;12.38;4.70;;;7.10;65.40;;;;;;5092139;28;20027;-74
2022/03/15 06:31:46;;;;;;;12.15;4.45;;;7.20;65.00;;;;;;5092688;28;20024;-76
2022/03/15 06:34:12;;;;;;;7.28;3.88;;;7.20;64.70;;;;;;5091076;28;20115;-75
2022/03/15 06:36:37;;;;;;;9.98;4.05;;;7.30;64.40;;;;;;5092357;28;20472;-75
2022/03/15 06:39:05;;;;;;;10.80;4.68;;;7.40;63.80;;;;;;5092756;28;20480;-76
2022/03/15 06:41:31;;;;;;;7.93;3.47;;;7.40;64.50;;;;;;5092467;28;20075;-75
2022/03/15 06:43:57;;;;;;;5.97;2.75;;;7.50;63.60;;;;;;5092299;28;20020;-73
2022/03/15 06:46:23;;;;;;;15.15;7.18;;;7.60;63.50;;;;;;5092367;28;20043;-74
2022/03/15 06:48:49;;;;;;;16.33;5.90;;;7.70;64.30;;;;;;5092337;28;20032;-75
2022/03/15 06:51:15;;;;;;;13.05;5.47;;;7.70;64.50;;;;;;5092597;28;20020;-75
2022/03/15 06:53:41;;;;;;;12.63;5.72;;;7.80;64.00;;;;;;5092454;28;20036;-75
2022/03/15 06:56:08;;;;;;;8.25;3.92;;;7.80;63.90;;;;;;5092186;28;20063;-76
2022/03/15 06:58:34;;;;;;;7.35;3.03;;;7.90;63.70;;;;;;5092435;28;20473;-76
2022/03/15 07:00:59;;;;;;;5.80;2.55;;;8.00;64.00;;;;;;5092300;28;20061;-76
2022/03/15 07:03:25;;;;;;;5.63;3.10;;;8.10;63.70;;;;;;5092501;28;20480;-75
2022/03/15 07:05:51;;;;;;;9.23;3.80;;;8.20;63.90;;;;;;5093828;28;20028;-75
2022/03/15 07:08:16;;;;;;;8.07;4.45;;;8.20;63.90;;;;;;5096290;28;20081;-74
2022/03/15 07:10:42;;;;;;;7.43;3.65;;;8.30;64.20;;;;;;5096319;28;20034;-76
2022/03/15 07:13:08;;;;;;;5.30;3.70;;;8.30;64.50;;;;;;5096173;28;20035;-76
2022/03/15 07:15:33;;;;;;;8.70;3.15;;;8.30;65.70;;;;;;5095994;28;20468;-75
2022/03/15 07:17:59;;;;;;;7.15;2.40;;;8.30;66.20;;;;;;5096504;28;20492;-75
2022/03/15 07:20:25;;;;;;;5.32;2.30;;;8.40;66.60;;;;;;5096837;28;20100;-74
2022/03/15 07:22:52;;;;;;;6.85;2.50;;;8.40;66.50;;;;;;5094776;28;20456;-74
2022/03/15 07:25:20;;;;;;;5.80;2.40;;;8.40;67.50;;;;;;5096028;28;20024;-72
2022/03/15 07:27:45;;;;;;;7.68;2.67;;;8.40;68.30;;;;;;5097819;28;20110;-72
2022/03/15 07:30:11;;;;;;;4.15;2.20;;;8.40;68.90;;;;;;5096739;28;20009;-75
2022/03/15 07:32:37;;;;;;;3.92;2.20;;;8.40;68.40;;;;;;5094713;28;20096;-72
2022/03/15 07:35:03;;;;;;;9.68;3.63;;;8.50;68.40;;;;;;5094817;28;20473;-74
2022/03/15 07:37:29;;;;;;;7.18;3.38;;;8.50;68.60;;;;;;5096574;28;20500;-72
2022/03/15 07:39:54;;;;;;;6.18;3.67;;;8.50;68.80;;;;;;5097825;28;20119;-74
2022/03/15 07:42:20;;;;;;;7.72;3.47;;;8.60;69.00;;;;;;5100224;28;20441;-74
2022/03/15 07:44:46;;;;;;;6.13;3.10;;;8.70;69.10;;;;;;5095564;28;20478;-72
2022/03/15 07:47:15;;;;;;;5.00;3.00;;;8.70;69.30;;;;;;5095621;28;20021;-71
2022/03/15 07:49:41;;;;;;;11.93;3.33;;;8.80;69.40;;;;;;5095505;28;20072;-75
2022/03/15 07:52:08;;;;;;;5.72;3.35;;;8.80;69.60;;;;;;5095320;28;20472;-75
2022/03/15 07:54:35;;;;;;;5.82;2.97;;;8.80;69.80;;;;;;5095629;28;20023;-73
2022/03/15 07:57:01;;;;;;;5.68;2.90;;;8.80;69.60;;;;;;5095595;28;20028;-74
2022/03/15 07:59:27;;;;;;;5.70;3.03;;;8.90;69.60;;;;;;5095339;28;20409;-75
2022/03/15 08:01:52;;;;;;;9.18;4.05;;;8.90;69.60;;;;;;5095465;28;20029;-74
2022/03/15 08:04:18;;;;;;;10.30;4.25;;;9.00;69.80;;;;;;5095769;28;20399;-75
2022/03/15 08:06:44;;;;;;;16.85;7.18;;;9.00;70.30;;;;;;5095336;28;20027;-74
2022/03/15 08:09:10;;;;;;;11.50;5.63;;;9.00;70.40;;;;;;5095327;28;20024;-75
2022/03/15 08:11:36;;;;;;;6.47;3.78;;;9.00;70.70;;;;;;5095560;28;20039;-73
2022/03/15 08:14:02;;;;;;;4.82;2.53;;;9.00;71.10;;;;;;5095456;28;20024;-76
2022/03/15 08:16:27;;;;;;;6.13;2.55;;;9.10;71.70;;;;;;5094889;28;20044;-76
2022/03/15 08:18:54;;;;;;;5.47;2.58;;;9.10;72.00;;;;;;5095089;28;20081;-78
2022/03/15 08:21:21;;;;;;;6.53;2.75;;;9.20;72.10;;;;;;5095161;28;20540;-74
2022/03/15 08:23:47;;;;;;;2.95;2.13;;;9.40;72.40;;;;;;5094222;28;20127;-75
2022/03/15 08:26:14;;;;;;;1.42;1.00;;;9.50;72.30;;;;;;5093974;28;20109;-75
2022/03/15 08:28:40;;;;;;;3.47;1.08;;;9.60;72.30;;;;;;5095661;28;20024;-73
2022/03/15 08:31:05;;;;;;;2.22;0.75;;;9.80;72.80;;;;;;5096014;28;20061;-77
2022/03/15 08:33:31;;;;;;;0.65;0.60;;;10.10;71.90;;;;;;5096933;28;20107;-74
2022/03/15 08:35:56;;;;;;;2.78;0.57;;;10.20;70.40;;;;;;5104284;28;20122;-72
2022/03/15 08:38:22;;;;;;;2.92;0.88;;;10.10;70.60;;;;;;5100229;28;20103;-74
2022/03/15 08:40:49;;;;;;;2.20;1.20;;;10.10;70.90;;;;;;5099257;28;20099;-79
2022/03/15 08:43:15;;;;;;;4.53;1.00;;;10.20;71.00;;;;;;5104770;28;20032;-72
2022/03/15 08:45:41;;;;;;;1.83;1.00;;;10.30;71.00;;;;;;5103366;28;20027;-73
2022/03/15 08:48:06;;;;;;;1.67;1.02;;;10.30;71.00;;;;;;5097265;28;20051;-72
2022/03/15 08:50:33;;;;;;;3.13;1.08;;;10.20;70.60;;;;;;5096838;28;20062;-72
2022/03/15 08:52:58;;;;;;;4.00;1.15;;;10.10;71.00;;;;;;5099291;28;20031;-72
2022/03/15 08:55:26;;;;;;;1.08;0.90;;;10.10;71.80;;;;;;5098914;28;20036;-72
2022/03/15 08:57:52;;;;;;;1.55;0.80;;;10.10;71.60;;;;;;5099369;28;20020;-72
2022/03/15 09:00:18;;;;;;;2.47;1.00;;;10.20;71.10;;;;;;5097277;28;20433;-73
2022/03/15 09:02:43;;;;;;;1.92;1.00;;;10.10;71.40;;;;;;5094913;28;20032;-74
2022/03/15 09:05:11;;;;;;;0.95;0.75;;;10.10;71.60;;;;;;5094175;28;20495;-73
2022/03/15 09:07:37;;;;;;;0.75;0.60;;;10.10;71.90;;;;;;5094751;28;20082;-73
2022/03/15 09:10:03;;;;;;;0.93;0.68;;;10.20;71.90;;;;;;5094434;28;20021;-74
2022/03/15 09:12:29;;;;;;;1.48;0.70;;;10.20;70.60;;;;;;5094068;28;20035;-75
2022/03/15 09:14:55;;;;;;;0.65;0.60;;;10.20;71.10;;;;;;5094399;28;20085;-72
2022/03/15 09:17:20;;;;;;;1.20;0.70;;;10.20;69.80;;;;;;5092984;28;20044;-74
2022/03/15 09:19:46;;;;;;;1.40;0.82;;;10.30;70.30;;;;;;5094373;28;20428;-74
2022/03/15 09:22:11;;;;;;;1.20;0.80;;;10.30;69.20;;;;;;5093248;28;20040;-74
2022/03/15 09:24:37;;;;;;;1.20;0.80;;;10.40;69.30;;;;;;5094302;28;20034;-77
2022/03/15 09:27:05;;;;;;;2.53;0.60;;;10.40;69.50;;;;;;5093348;28;20044;-76
2022/03/15 09:29:31;;;;;;;2.22;0.85;;;10.30;69.10;;;;;;5093467;28;20461;-77
2022/03/15 09:31:57;;;;;;;3.20;1.50;;;10.40;69.50;;;;;;5094215;28;20028;-76
2022/03/15 09:34:23;;;;;;;2.60;0.80;;;10.40;69.40;;;;;;5094245;28;20066;-76
2022/03/15 09:36:49;;;;;;;4.22;0.90;;;10.40;68.90;;;;;;5093821;28;20026;-76
2022/03/15 09:39:15;;;;;;;1.50;0.75;;;10.40;69.30;;;;;;5093998;28;20047;-77
2022/03/15 09:41:41;;;;;;;1.38;0.63;;;10.40;69.10;;;;;;5093711;28;20027;-76
2022/03/15 09:44:09;;;;;;;1.85;0.80;;;10.50;68.80;;;;;;5094166;28;20081;-76
2022/03/15 09:46:42;;;;;;;1.92;0.73;;;10.50;69.20;;;;;;5093672;28;20016;-75
2022/03/15 09:49:09;;;;;;;4.80;1.10;;;10.50;69.80;;;;;;5092119;28;20093;-74
2022/03/15 09:51:36;;;;;;;2.05;1.00;;;10.50;70.30;;;;;;5093810;28;20031;-72
2022/03/15 09:54:04;;;;;;;2.55;0.98;;;10.50;71.20;;;;;;5093866;28;20035;-75
2022/03/15 09:56:38;;;;;;;1.40;0.70;;;10.60;70.30;;;;;;5093954;28;20076;-74
2022/03/15 09:59:18;;;;;;;4.03;1.08;;;10.60;70.50;;;;;;5093848;28;20112;-72
2022/03/15 10:01:50;;;;;;;4.47;1.08;;;10.60;70.70;;;;;;5092449;28;20039;-73
2022/03/15 10:04:16;;;;;;;2.97;0.82;;;10.60;70.80;;;;;;5091041;28;20056;-74
2022/03/15 10:06:41;;;;;;;2.88;0.73;;;10.60;70.50;;;;;;5072086;28;20028;-76
2022/03/15 10:09:08;;;;;;;4.20;1.50;;;10.70;70.30;;;;;;5093030;28;20024;-75
2022/03/15 10:11:34;;;;;;;4.03;1.00;;;10.80;69.90;;;;;;5092084;28;20035;-74
2022/03/15 10:13:59;;;;;;;1.58;0.70;;;10.80;69.70;;;;;;5093231;28;20031;-77
2022/03/15 10:16:33;;;;;;;3.20;0.98;;;10.80;68.80;;;;;;5093430;28;20040;-76
2022/03/15 10:18:59;;;;;;;3.63;1.00;;;10.80;69.00;;;;;;5093499;28;20542;-75
2022/03/15 10:21:39;;;;;;;2.30;0.90;;;10.80;68.80;;;;;;5091882;28;20097;-76
2022/03/15 10:24:07;;;;;;;1.25;0.70;;;10.70;68.70;;;;;;5093556;28;20066;-77
2022/03/15 10:26:39;;;;;;;2.38;1.05;;;10.70;69.20;;;;;;5091584;28;20024;-75
2022/03/15 10:29:06;;;;;;;3.30;1.00;;;10.60;69.50;;;;;;5093167;28;20061;-75
2022/03/15 10:31:32;;;;;;;2.72;0.90;;;10.50;69.90;;;;;;5093303;28;20031;-75
2022/03/15 10:34:01;;;;;;;2.13;1.00;;;10.50;70.30;;;;;;5091805;28;20396;-74
2022/03/15 10:36:27;;;;;;;1.08;0.70;;;10.60;70.10;;;;;;5091703;28;20046;-75
2022/03/15 10:38:53;;;;;;;2.63;1.65;;;10.60;69.90;;;;;;5091902;28;20417;-75
2022/03/15 10:41:20;;;;;;;1.40;1.13;;;10.50;69.90;;;;;;5096463;28;20027;-75
2022/03/15 10:43:51;;;;;;;2.35;0.95;;;10.50;69.30;;;;;;5094815;28;20043;-73
2022/03/15 10:46:25;;;;;;;2.38;0.95;;;10.50;69.00;;;;;;5092192;28;20026;-74
2022/03/15 10:49:02;;;;;;;2.17;1.45;;;10.50;69.20;;;;;;5098366;28;20020;-74
2022/03/15 10:51:28;;;;;;;1.50;1.15;;;10.60;69.20;;;;;;5096891;28;20020;-73
2022/03/15 10:54:00;;;;;;;3.25;1.13;;;10.70;68.20;;;;;;5096738;28;20460;-73
2022/03/15 10:56:26;;;;;;;1.45;0.90;;;10.70;68.50;;;;;;5096701;28;20380;-74
2022/03/15 10:59:01;;;;;;;1.25;0.95;;;10.70;67.00;;;;;;5097030;28;20035;-74
2022/03/15 11:01:48;;;;;;;2.63;1.15;;;10.70;66.70;;;;;;5096461;28;20043;-74
2022/03/15 11:04:14;;;;;;;3.05;1.35;;;10.70;66.80;;;;;;5096170;28;20016;-73
2022/03/15 11:06:44;;;;;;;2.55;1.60;;;10.80;67.10;;;;;;5096349;28;20039;-73
2022/03/15 11:09:28;;;;;;;2.10;1.10;;;10.70;67.40;;;;;;5095997;28;20016;-72
2022/03/15 11:12:02;;;;;;;3.88;1.73;;;10.70;66.80;;;;;;5095822;28;20023;-74
2022/03/15 11:14:47;;;;;;;4.30;2.00;;;10.80;66.50;;;;;;5095855;28;20020;-73
2022/03/15 11:17:19;;;;;;;2.97;1.67;;;10.80;67.50;;;;;;5095693;28;20044;-74
2022/03/15 11:19:46;;;;;;;2.13;1.48;;;10.70;67.60;;;;;;5095864;28;20077;-74
2022/03/15 11:22:17;;;;;;;2.33;1.35;;;10.70;66.60;;;;;;5096004;28;20134;-73
2022/03/15 11:25:18;;;;;;;3.35;1.27;;;10.70;65.70;;;;;;5094491;28;20020;-74
2022/03/15 11:27:46;;;;;;;1.63;1.20;;;10.70;65.70;;;;;;5094455;28;20059;-76
2022/03/15 11:30:14;;;;;;;4.93;1.85;;;10.60;66.20;;;;;;5096000;28;20020;-77
2022/03/15 11:32:41;;;;;;;1.63;1.25;;;10.50;67.00;;;;;;5095889;28;20095;-75
2022/03/15 11:35:09;;;;;;;2.80;1.20;;;10.50;66.40;;;;;;5096086;28;20050;-75
2022/03/15 11:37:36;;;;;;;2.45;1.58;;;10.50;66.90;;;;;;5096036;28;20020;-77
2022/03/15 11:40:08;;;;;;;5.90;2.58;;;10.50;68.50;;;;;;5095838;28;20020;-76
2022/03/15 11:42:35;;;;;;;4.47;2.00;;;10.50;69.70;;;;;;5094251;28;20131;-74
2022/03/15 11:45:15;;;;;;;2.50;1.58;;;10.50;69.70;;;;;;5094230;28;20081;-77
2022/03/15 11:47:50;;;;;;;5.55;2.03;;;10.50;70.20;;;;;;5094420;28;20043;-74
2022/03/15 11:50:22;;;;;;;6.05;2.67;;;10.50;70.50;;;;;;5095897;28;20032;-79
2022/03/15 11:52:56;;;;;;;4.25;1.98;;;10.50;70.40;;;;;;5095073;28;20111;-74
2022/03/15 11:55:32;;;;;;;4.65;1.65;;;10.50;70.50;;;;;;5094886;28;20020;-73
2022/03/15 11:58:09;;;;;;;4.35;1.70;;;10.50;71.50;;;;;;5102813;28;20020;-75
2022/03/15 12:00:36;;;;;;;2.65;1.77;;;10.40;71.40;;;;;;5094958;28;20043;-76
2022/03/15 12:03:06;;;;;;;2.47;1.77;;;10.50;71.60;;;;;;5095285;28;20024;-74
2022/03/15 12:05:47;;;;;;;3.63;1.92;;;10.50;71.80;;;;;;5093582;28;20016;-72
2022/03/15 12:08:17;;;;;;;3.03;1.80;;;10.40;71.10;;;;;;5094885;28;20051;-77
2022/03/15 12:11:02;;;;;;;4.97;1.48;;;10.40;71.30;;;;;;5094802;28;20066;-79
2022/03/15 12:13:49;;;;;;;4.00;1.70;;;10.50;72.80;;;;;;5094885;28;20028;-73
2022/03/15 12:16:27;;;;;;;4.18;1.60;;;10.50;72.90;;;;;;5094696;28;20043;-72
2022/03/15 12:21:57;;;;;;;9.00;1.58;;;10.90;71.50;;;;;;5098676;28;20075;-74
2022/03/15 12:24:46;;;;;;;5.75;1.65;;;11.10;72.10;;;;;;5098103;28;20024;-73
2022/03/15 12:27:16;;;;;;;2.70;1.48;;;11.40;69.00;;;;;;5096782;28;20077;-75
2022/03/15 12:29:52;;;;;;;3.50;1.73;;;11.70;67.70;;;;;;5095519;28;20087;-77
2022/03/15 12:32:18;;;;;;;4.22;1.48;;;11.80;66.40;;;;;;5095985;28;20039;-78
2022/03/15 12:34:49;;;;;;;8.00;2.17;;;11.70;66.50;;;;;;5094876;28;20031;-72
2022/03/15 12:37:16;;;;;;;2.40;1.40;;;11.90;66.70;;;;;;5097335;28;20449;-87
2022/03/15 12:39:53;;;;;;;3.53;1.85;;;12.00;66.20;;;;;;5096227;28;20111;-92
2022/03/15 12:42:22;;;;;;;2.78;1.70;;;12.10;66.10;;;;;;5096335;28;20043;-88
2022/03/15 12:44:51;;;;;;;6.80;3.03;;;12.10;65.70;;;;;;5096724;28;20179;-84
2022/03/15 12:47:19;;;;;;;5.13;2.40;;;12.20;65.30;;;;;;5096972;28;20028;-89
2022/03/15 12:50:13;;;;;;;6.55;2.40;;;12.20;65.30;;;;;;5096867;28;20116;-88
2022/03/15 12:52:49;;;;;;;5.20;2.45;;;12.30;65.40;;;;;;5096628;28;20028;-89
2022/03/15 12:55:29;;;;;;;2.85;1.88;;;12.20;65.40;;;;;;5096322;28;20027;-89